createdAt,value
2023-03-02T00:02:09.446Z,0.60
2023-03-02T00:06:12.923Z,0.60
2023-03-02T00:10:15.960Z,0.60
2023-03-02T00:14:20.358Z,0.50
2023-03-02T00:18:23.410Z,0.50
2023-03-02T00:22:26.353Z,0.50
2023-03-02T00:26:29.247Z,0.50
2023-03-02T00:30:33.392Z,0.50
2023-03-02T00:34:36.177Z,0.40
2023-03-02T00:38:38.967Z,0.40
2023-03-02T00:42:41.767Z,0.40
2023-03-02T00:46:46.193Z,0.40
2023-03-02T00:50:49.068Z,0.40
2023-03-02T00:54:51.916Z,0.30
2023-03-02T00:58:54.869Z,0.30
2023-03-02T01:02:59.615Z,0.20
2023-03-02T01:07:05.726Z,0.20
2023-03-02T01:11:14.287Z,0.20
2023-03-02T01:15:17.265Z,0.10
2023-03-02T01:19:21.656Z,0.10
2023-03-02T01:23:24.730Z,0.00
2023-03-02T01:27:27.844Z,0.00
2023-03-02T01:31:30.863Z,-0.10
2023-03-02T01:35:35.284Z,-0.10
2023-03-02T01:39:38.375Z,-0.10
2023-03-02T01:43:41.357Z,-0.20
2023-03-02T01:47:44.344Z,-0.20
2023-03-02T01:51:48.874Z,-0.30
2023-03-02T01:55:51.772Z,-0.40
2023-03-02T01:59:56.956Z,-0.40
2023-03-02T02:04:01.678Z,-0.50
2023-03-02T02:08:06.108Z,-0.50
2023-03-02T02:12:13.805Z,-0.60
2023-03-02T02:16:16.693Z,-0.60
2023-03-02T02:20:24.082Z,-0.60
2023-03-02T02:24:31.982Z,-0.70
2023-03-02T02:28:38.404Z,-0.70
2023-03-02T02:32:42.716Z,-0.80
2023-03-02T02:36:47.964Z,-0.80
2023-03-02T02:40:53.807Z,-0.80
2023-03-02T02:44:58.963Z,-0.80
2023-03-02T02:49:03.216Z,-0.80
2023-03-02T02:53:08.052Z,-0.80
2023-03-02T02:57:11.764Z,-0.80
2023-03-02T03:01:17.208Z,-0.80
2023-03-02T03:05:20.233Z,-0.80
2023-03-02T03:09:23.463Z,-0.80
2023-03-02T03:13:26.355Z,-0.80
2023-03-02T03:17:30.527Z,-0.80
2023-03-02T03:21:33.327Z,-0.80
2023-03-02T03:25:36.134Z,-0.80
2023-03-02T03:29:39.863Z,-0.80
2023-03-02T03:33:44.046Z,-0.80
2023-03-02T03:37:48.520Z,-0.70
2023-03-02T03:41:51.340Z,-0.80
2023-03-02T03:45:54.168Z,-0.80
2023-03-02T03:49:58.429Z,-0.80
2023-03-02T03:54:01.242Z,-0.70
2023-03-02T03:58:04.134Z,-0.60
2023-03-02T04:17:20.216Z,-0.30
2023-03-02T04:21:23.368Z,-0.20
2023-03-02T04:25:27.277Z,-0.20
2023-03-02T04:29:32.334Z,-0.10
2023-03-02T04:33:36.575Z,0.00
2023-03-02T04:37:39.418Z,0.10
2023-03-02T04:41:42.242Z,0.20
2023-03-02T04:45:45.057Z,0.30
2023-03-02T04:49:50.511Z,0.40
2023-03-02T04:53:53.614Z,0.50
2023-03-02T04:57:56.438Z,0.50
2023-03-02T05:02:00.253Z,0.60
2023-03-02T05:06:04.775Z,0.60
2023-03-02T05:10:08.120Z,0.70
2023-03-02T05:14:12.187Z,0.70
2023-03-02T05:18:15.052Z,0.70
2023-03-02T05:22:19.386Z,0.80
2023-03-02T05:26:22.292Z,0.80
2023-03-02T05:30:25.344Z,0.80
2023-03-02T05:34:28.141Z,0.80
2023-03-02T05:38:32.590Z,0.90
2023-03-02T05:42:35.908Z,0.90
2023-03-02T05:46:39.216Z,0.90
2023-03-02T05:50:42.241Z,0.90
2023-03-02T05:54:46.424Z,1.00
2023-03-02T05:58:49.298Z,1.00
2023-03-02T06:02:52.113Z,1.00
2023-03-02T06:06:54.993Z,1.00
2023-03-02T06:10:59.169Z,1.00
2023-03-02T06:15:02.054Z,1.00
2023-03-02T06:19:04.852Z,1.00
2023-03-02T06:23:07.827Z,1.00
2023-03-02T06:27:12.946Z,1.10
2023-03-02T06:31:15.812Z,1.10
2023-03-02T06:35:18.795Z,1.10
2023-03-02T06:39:21.706Z,1.10
2023-03-02T06:43:25.934Z,1.10
2023-03-02T06:47:28.785Z,1.10
2023-03-02T06:51:31.593Z,1.10
2023-03-02T06:55:34.592Z,1.20
2023-03-02T06:59:38.967Z,1.20
2023-03-02T07:03:41.807Z,1.20
2023-03-02T07:07:44.692Z,1.20
2023-03-02T07:11:49.286Z,1.20
2023-03-02T07:15:54.885Z,1.20
2023-03-02T07:19:57.713Z,1.20
2023-03-02T07:24:00.650Z,1.30
2023-03-02T07:28:03.429Z,1.30
2023-03-02T07:32:07.776Z,1.30
2023-03-02T07:36:10.630Z,1.30
2023-03-02T07:40:14.169Z,1.30
2023-03-02T07:44:16.974Z,1.30
2023-03-02T07:48:23.200Z,1.40
2023-03-02T07:52:26.079Z,1.40
2023-03-02T07:56:28.874Z,1.40
2023-03-02T08:00:31.692Z,1.40
2023-03-02T08:04:37.063Z,1.50
2023-03-02T08:08:40.278Z,1.50
2023-03-02T08:12:44.146Z,1.50
2023-03-02T08:16:46.958Z,1.60
2023-03-02T08:20:51.168Z,1.60
2023-03-02T08:24:53.980Z,1.60
2023-03-02T08:28:56.837Z,1.70
2023-03-02T08:37:10.096Z,1.70
2023-03-02T08:41:13.720Z,1.80
2023-03-02T08:45:16.529Z,1.80
2023-03-02T08:49:20.158Z,1.90
2023-03-02T08:53:24.409Z,1.90
2023-03-02T08:57:27.223Z,1.90
2023-03-02T09:01:31.590Z,2.00
2023-03-02T09:05:35.814Z,2.00
2023-03-02T09:09:39.986Z,2.00
2023-03-02T09:13:42.928Z,2.00
2023-03-02T09:17:45.775Z,2.10
2023-03-02T09:21:48.658Z,2.10
2023-03-02T09:25:53.460Z,2.10
2023-03-02T09:29:56.318Z,2.10
2023-03-02T09:33:59.103Z,2.20
2023-03-02T09:38:01.929Z,2.20
2023-03-02T09:42:41.793Z,2.30
2023-03-02T09:46:48.950Z,2.30
2023-03-02T09:50:54.615Z,2.30
2023-03-02T09:54:58.039Z,2.40
2023-03-02T09:59:04.240Z,2.40
2023-03-02T10:03:16.783Z,2.50
2023-03-02T10:07:23.771Z,2.50
2023-03-02T10:11:32.218Z,2.60
2023-03-02T10:15:39.796Z,2.70
2023-03-02T10:19:45.159Z,2.70
2023-03-02T10:23:51.021Z,2.70
2023-03-02T10:27:57.538Z,2.80
2023-03-02T10:32:05.516Z,2.90
2023-03-02T10:36:14.869Z,2.90
2023-03-02T10:40:34.229Z,3.00
2023-03-02T10:44:38.288Z,3.00
2023-03-02T10:48:52.310Z,3.10
2023-03-02T10:53:00.207Z,3.10
2023-03-02T10:57:04.504Z,3.20
2023-03-02T11:01:15.076Z,3.30
2023-03-02T11:05:22.733Z,3.40
2023-03-02T11:13:34.340Z,3.70
2023-03-02T11:17:38.762Z,3.90
2023-03-02T11:21:45.542Z,4.10
2023-03-02T11:25:54.445Z,4.20
2023-03-02T11:30:00.257Z,4.30
2023-03-02T11:34:26.853Z,4.40
2023-03-02T11:38:32.505Z,4.70
2023-03-02T11:42:36.942Z,4.90
2023-03-02T11:46:40.121Z,5.00
2023-03-02T11:50:50.410Z,5.10
2023-03-02T11:54:57.644Z,5.10
2023-03-02T11:59:01.372Z,5.20
2023-03-02T12:03:05.804Z,5.40
2023-03-02T12:07:18.456Z,5.50
2023-03-02T12:11:35.337Z,5.80
2023-03-02T12:15:40.025Z,6.10
2023-03-02T12:19:45.127Z,6.30
2023-03-02T12:23:55.805Z,6.40
2023-03-02T12:27:59.960Z,6.40
2023-03-02T12:32:10.734Z,6.50
2023-03-02T12:36:15.243Z,6.70
2023-03-02T12:40:26.596Z,7.00
2023-03-02T12:44:38.799Z,7.20
2023-03-02T12:48:44.970Z,7.20
2023-03-02T12:52:57.413Z,7.40
2023-03-02T12:57:06.266Z,7.60
2023-03-02T13:01:21.280Z,8.00
2023-03-02T13:05:28.473Z,8.50
2023-03-02T13:09:31.314Z,8.90
2023-03-02T13:13:37.089Z,8.90
2023-03-02T13:17:41.298Z,8.90
2023-03-02T13:21:44.186Z,8.90
2023-03-02T13:25:50.825Z,8.70
2023-03-02T13:29:55.598Z,8.70
2023-03-02T13:34:00.241Z,8.50
2023-03-02T13:38:04.596Z,8.30
2023-03-02T13:42:08.866Z,8.20
2023-03-02T13:46:28.757Z,8.10
2023-03-02T13:50:33.200Z,8.00
2023-03-02T13:54:36.739Z,7.90
2023-03-02T13:58:40.497Z,7.90
2023-03-02T14:02:43.714Z,7.90
2023-03-02T14:06:47.884Z,7.80
2023-03-02T14:10:51.894Z,7.70
2023-03-02T14:14:56.890Z,7.60
2023-03-02T14:18:59.771Z,7.50
2023-03-02T14:23:06.886Z,7.40
2023-03-02T14:27:10.032Z,7.30
2023-03-02T14:31:12.951Z,7.20
2023-03-02T14:35:16.750Z,7.10
2023-03-02T14:39:22.917Z,7.00
2023-03-02T14:43:26.272Z,6.90
2023-03-02T14:47:29.156Z,6.70
2023-03-02T14:51:34.725Z,6.70
2023-03-02T14:55:41.392Z,6.50
2023-03-02T14:59:44.256Z,6.50
2023-03-02T15:03:47.201Z,6.30
2023-03-02T15:07:50.416Z,6.30
2023-03-02T15:11:54.656Z,6.10
2023-03-02T15:15:57.694Z,6.10
2023-03-02T15:20:00.518Z,5.90
2023-03-02T15:24:03.373Z,5.80
2023-03-02T15:28:07.654Z,5.70
2023-03-02T15:32:10.520Z,5.60
2023-03-02T15:36:13.651Z,5.50
2023-03-02T15:40:16.624Z,5.30
2023-03-02T15:44:22.984Z,5.20
2023-03-02T15:48:25.830Z,5.10
2023-03-02T15:52:28.685Z,5.00
2023-03-02T15:56:42.379Z,5.00
2023-03-02T16:00:48.073Z,4.90
2023-03-02T16:04:50.891Z,4.80
2023-03-02T16:08:53.722Z,4.80
2023-03-02T16:12:56.591Z,4.70
2023-03-02T16:17:00.734Z,4.60
2023-03-02T16:21:03.570Z,4.60
2023-03-02T16:25:06.748Z,4.50
2023-03-02T16:29:09.621Z,4.50
2023-03-02T16:33:15.236Z,4.40
2023-03-02T16:37:18.135Z,4.40
2023-03-02T16:41:21.908Z,4.40
2023-03-02T16:45:24.966Z,4.30
2023-03-02T16:49:29.234Z,4.30
2023-03-02T16:53:34.752Z,4.20
2023-03-02T16:57:39.867Z,4.20
2023-03-02T17:01:42.710Z,4.10
2023-03-02T17:05:46.847Z,4.10
2023-03-02T17:09:49.659Z,4.10
2023-03-02T17:13:52.464Z,4.10
2023-03-02T17:17:55.296Z,4.00
2023-03-02T17:21:59.842Z,4.00
2023-03-02T17:26:02.690Z,4.00
2023-03-02T17:30:07.041Z,3.90
2023-03-02T17:34:09.964Z,3.90
2023-03-02T17:38:14.451Z,3.90
2023-03-02T17:42:17.284Z,3.80
2023-03-02T17:46:21.254Z,3.80
2023-03-02T17:50:24.529Z,3.80
2023-03-02T17:54:28.696Z,3.80
2023-03-02T17:58:44.332Z,3.70
2023-03-02T18:02:48.308Z,3.70
2023-03-02T18:06:54.061Z,3.70
2023-03-02T18:10:58.365Z,3.70
2023-03-02T18:15:01.650Z,3.70
2023-03-02T18:19:04.492Z,3.70
2023-03-02T18:23:07.535Z,3.70
2023-03-02T18:27:11.741Z,3.70
2023-03-02T18:31:15.510Z,3.70
2023-03-02T18:35:19.444Z,3.70
2023-03-02T18:39:22.577Z,3.70
2023-03-02T18:43:26.752Z,3.70
2023-03-02T18:47:30.362Z,3.70
2023-03-02T18:51:33.207Z,3.70
2023-03-02T18:55:37.121Z,3.70
2023-03-02T18:59:41.410Z,3.70
2023-03-02T19:03:45.920Z,3.70
2023-03-02T19:07:50.230Z,3.70
2023-03-02T19:11:53.097Z,3.60
2023-03-02T19:15:58.494Z,3.60
2023-03-02T19:20:02.701Z,3.60
2023-03-02T19:24:06.737Z,3.60
2023-03-02T19:28:09.690Z,3.70
2023-03-02T19:32:14.829Z,3.70
2023-03-02T19:36:18.232Z,3.70
2023-03-02T19:40:22.070Z,3.70
2023-03-02T19:44:25.701Z,3.70
2023-03-02T19:48:30.315Z,3.70
2023-03-02T19:52:33.188Z,3.70
2023-03-02T19:56:39.664Z,3.70
2023-03-02T20:00:43.116Z,3.70
2023-03-02T20:04:49.086Z,3.70
2023-03-02T20:08:52.933Z,3.70
2023-03-02T20:12:56.494Z,3.80
2023-03-02T20:16:59.437Z,3.70
2023-03-02T20:21:03.800Z,3.80
2023-03-02T20:25:08.222Z,3.80
2023-03-02T20:29:11.812Z,3.80
2023-03-02T20:33:15.287Z,3.80
2023-03-02T20:37:19.794Z,3.80
2023-03-02T20:41:22.737Z,3.80
2023-03-02T20:45:26.124Z,3.80
2023-03-02T20:49:31.001Z,3.80
2023-03-02T20:53:36.715Z,3.80
2023-03-02T20:57:40.746Z,3.80
2023-03-02T21:01:44.765Z,3.80
2023-03-02T21:05:49.849Z,3.80
2023-03-02T21:09:57.193Z,3.90
2023-03-02T21:14:02.200Z,3.90
2023-03-02T21:18:05.402Z,3.90
2023-03-02T21:22:09.664Z,3.80
2023-03-02T21:26:15.124Z,3.90
2023-03-02T21:30:20.035Z,3.90
2023-03-02T21:34:22.926Z,3.90
2023-03-02T21:38:27.057Z,3.90
2023-03-02T21:42:31.713Z,3.90
2023-03-02T21:46:35.605Z,3.90
2023-03-02T21:50:39.207Z,3.90
2023-03-02T21:54:44.539Z,3.90
2023-03-02T21:58:50.573Z,3.90
2023-03-02T22:02:53.682Z,3.90
2023-03-02T22:06:56.799Z,3.80
2023-03-02T22:11:00.041Z,3.80
2023-03-02T22:15:14.888Z,3.80
2023-03-02T22:19:25.560Z,3.80
2023-03-02T22:23:28.512Z,3.80
2023-03-02T22:27:31.937Z,3.80
2023-03-02T22:31:37.789Z,3.80
2023-03-02T22:35:42.567Z,3.80
2023-03-02T22:39:45.895Z,3.80
2023-03-02T22:43:49.523Z,3.80
2023-03-02T22:47:54.323Z,3.80
2023-03-02T22:51:58.982Z,3.80
2023-03-02T22:56:02.528Z,3.80
2023-03-02T23:00:32.241Z,3.80
2023-03-02T23:04:38.057Z,3.80
2023-03-02T23:08:40.906Z,3.80
2023-03-02T23:12:43.736Z,3.80
2023-03-02T23:16:46.913Z,3.80
2023-03-02T23:20:51.512Z,3.80
2023-03-02T23:24:54.305Z,3.70
2023-03-02T23:28:57.150Z,3.70
2023-03-02T23:33:00.019Z,3.70
2023-03-02T23:37:04.155Z,3.70
2023-03-02T23:41:07.494Z,3.70
2023-03-02T23:45:11.282Z,3.70
2023-03-02T23:49:14.117Z,3.70
2023-03-02T23:53:18.249Z,3.60
2023-03-02T23:57:21.036Z,3.60
